Time;durP1;ratioP1;P1;durP2;ratioP2;P2;SDS_P1;SDS_P2;PMS_P1;PMS_P2;Temp;Humidity;BMP_temperature;BMP_pressure;BME280_temperature;BME280_humidity;BME280_pressure;Samples;Min_cycle;Max_cycle;Signal;HPM_P1;HPM_P2
2022/03/16 00:00:23;;;;;;;;;39.00;36.75;;;;;14.05;27.92;100207.31;5012130;28;8978;-78
2022/03/16 00:03:09;;;;;;;;;42.75;38.00;;;;;14.28;27.50;100201.09;5020096;28;8870;-77
2022/03/16 00:05:38;;;;;;;;;36.75;32.25;;;;;14.36;27.39;100205.41;5010794;28;8871;-78
2022/03/16 00:08:07;;;;;;;;;42.75;37.25;;;;;14.41;27.41;100203.63;5007317;28;8903;-77
2022/03/16 00:10:36;;;;;;;;;44.75;38.50;;;;;14.48;27.24;100196.59;4994004;28;8845;-77
2022/03/16 00:13:04;;;;;;;;;46.75;39.75;;;;;14.57;27.35;100191.34;5026415;28;8872;-77
2022/03/16 00:15:33;;;;;;;;;40.50;37.50;;;;;14.62;27.15;100183.41;5044566;28;8964;-78
2022/03/16 00:18:02;;;;;;;;;49.25;40.75;;;;;14.67;27.13;100184.25;5011525;28;8858;-77
2022/03/16 00:20:32;;;;;;;;;50.00;41.50;;;;;14.68;26.97;100177.25;5011375;28;8955;-77
2022/03/16 00:23:01;;;;;;;;;50.00;40.75;;;;;14.46;27.58;100173.84;4987918;28;8869;-77
2022/03/16 00:25:29;;;;;;;;;8.50;3.25;;;;;14.38;27.83;100173.91;4990744;28;8864;-76
2022/03/16 00:27:58;;;;;;;;;42.50;36.50;;;;;14.42;28.05;100165.13;4996299;28;8965;-78
2022/03/16 00:30:27;;;;;;;;;44.25;39.25;;;;;14.40;27.32;100162.53;4994461;28;8896;-75
2022/03/16 00:32:55;;;;;;;;;23.00;21.50;;;;;14.29;27.83;100160.84;4994103;28;8874;-79
2022/03/16 00:35:25;;;;;;;;;49.25;40.50;;;;;14.34;28.09;100162.56;5009031;28;8870;-77
2022/03/16 00:37:55;;;;;;;;;49.75;39.50;;;;;14.27;28.16;100155.59;5008657;28;8854;-79
2022/03/16 00:40:24;;;;;;;;;48.75;40.00;;;;;14.32;28.16;100150.34;5009439;28;8894;-77
2022/03/16 00:42:53;;;;;;;;;48.25;40.00;;;;;14.26;27.96;100142.50;4993561;28;9027;-77
2022/03/16 00:45:21;;;;;;;;;47.75;40.00;;;;;14.20;28.64;100136.41;5025981;28;8866;-77
2022/03/16 00:47:51;;;;;;;;;48.50;40.00;;;;;14.11;28.94;100136.47;4991913;28;8881;-78
2022/03/16 00:50:19;;;;;;;;;50.50;40.00;;;;;14.21;28.46;100122.44;4978056;28;8852;-80
2022/03/16 00:52:48;;;;;;;;;47.50;39.75;;;;;14.19;28.09;100120.69;5022461;28;8876;-76
2022/03/16 00:55:20;;;;;;;;;49.50;39.25;;;;;14.19;28.31;100110.19;4989357;28;8860;-77
2022/03/16 00:57:49;;;;;;;;;47.75;39.75;;;;;14.23;28.42;100109.28;4989281;28;8880;-77
2022/03/16 01:00:18;;;;;;;;;46.25;39.25;;;;;14.30;28.83;100102.25;5022531;28;8857;-77
2022/03/16 01:02:47;;;;;;;;;41.25;36.75;;;;;14.11;28.43;100091.88;4989449;28;8860;-79
2022/03/16 01:05:18;;;;;;;;;32.00;30.00;;;;;13.89;29.06;100079.78;4989627;28;8852;-77
2022/03/16 01:07:47;;;;;;;;;42.00;36.00;;;;;13.98;29.36;100075.34;4990778;28;8962;-77
2022/03/16 01:10:16;;;;;;;;;24.50;18.50;;;;;14.04;29.63;100074.44;5006057;28;8860;-77
2022/03/16 01:12:47;;;;;;;;;41.00;35.25;;;;;14.08;29.14;100078.78;4989803;28;8857;-76
2022/03/16 01:15:17;;;;;;;;;40.00;36.25;;;;;14.21;28.95;100080.47;4991000;28;8869;-77
2022/03/16 01:17:46;;;;;;;;;37.00;35.75;;;;;14.38;29.37;100079.44;5022199;28;8860;-77
2022/03/16 01:20:15;;;;;;;;;44.50;37.00;;;;;14.49;28.84;100068.88;4994346;28;8854;-77
2022/03/16 01:22:44;;;;;;;;;45.00;36.25;;;;;14.64;28.63;100067.91;4992757;28;8857;-76
2022/03/16 01:25:13;;;;;;;;;42.25;38.25;;;;;14.71;29.14;100067.84;4959087;28;8874;-80
2022/03/16 01:27:42;;;;;;;;;48.25;40.75;;;;;14.79;28.39;100073.88;4975180;28;8890;-76
2022/03/16 01:30:14;;;;;;;;;45.00;38.75;;;;;14.87;28.61;100072.94;5008209;28;8850;-78
2022/03/16 01:32:43;;;;;;;;;53.50;41.00;;;;;14.82;28.29;100076.50;5008315;28;8866;-80
2022/03/16 01:35:12;;;;;;;;;41.50;36.75;;;;;14.85;28.66;100086.09;5008527;28;8866;-78
2022/03/16 01:37:43;;;;;;;;;46.00;37.25;;;;;14.91;28.48;100075.50;5008461;28;8854;-77
2022/03/16 01:40:12;;;;;;;;;45.00;40.25;;;;;14.99;29.38;100075.47;5008526;28;8850;-78
2022/03/16 01:42:41;;;;;;;;;41.50;38.00;;;;;14.97;29.38;100082.47;4987747;28;8877;-78
2022/03/16 01:45:12;;;;;;;;;47.75;40.00;;;;;15.04;29.63;100076.28;4972850;28;8868;-77
2022/03/16 01:47:40;;;;;;;;;41.25;33.75;;;;;15.00;30.77;100069.31;5021363;28;8841;-78
2022/03/16 01:50:10;;;;;;;;;47.75;39.00;;;;;14.87;30.13;100065.06;4994079;28;8872;-78
2022/03/16 01:52:40;;;;;;;;;45.00;38.00;;;;;14.75;30.28;100064.31;4908445;28;8873;-78
2022/03/16 01:55:10;;;;;;;;;43.00;37.00;;;;;14.58;31.05;100050.47;4971634;28;9022;-77
2022/03/16 01:57:41;;;;;;;;;40.75;36.50;;;;;14.55;31.44;100039.94;5002469;28;8868;-80
2022/03/16 02:00:13;;;;;;;;;43.50;37.25;;;;;14.48;30.94;100026.03;4987667;28;8857;-78
2022/03/16 02:02:44;;;;;;;;;42.00;37.25;;;;;14.49;31.91;100027.75;4924419;28;9015;-77
2022/03/16 02:05:14;;;;;;;;;51.50;40.75;;;;;14.58;32.45;100030.34;5004526;28;8852;-77
2022/03/16 02:07:44;;;;;;;;;47.50;38.50;;;;;14.65;32.27;100019.75;4987263;28;9732;-78
2022/03/16 02:10:14;;;;;;;;;47.75;37.00;;;;;14.45;32.00;100012.94;4987539;28;8864;-78
2022/03/16 02:12:47;;;;;;;;;45.75;37.75;;;;;14.41;32.51;100016.47;4987746;28;8879;-80
2022/03/16 02:15:18;;;;;;;;;37.50;35.00;;;;;14.47;32.17;100013.78;4986630;28;8869;-78
2022/03/16 02:17:46;;;;;;;;;42.00;36.50;;;;;14.56;32.30;100012.84;4987915;28;8889;-78
2022/03/16 02:20:15;;;;;;;;;36.50;33.75;;;;;14.55;31.81;100014.56;4987693;28;9003;-77
2022/03/16 02:22:59;;;;;;;;;43.75;38.50;;;;;14.56;32.01;100013.69;4998561;28;8834;-79
2022/03/16 02:25:29;;;;;;;;;42.75;36.75;;;;;14.59;32.08;100007.56;4975609;28;8847;-77
2022/03/16 02:27:59;;;;;;;;;41.00;36.50;;;;;14.59;31.89;100004.94;5009229;28;8884;-77
2022/03/16 02:30:30;;;;;;;;;43.75;38.25;;;;;14.37;32.42;99999.88;5008871;28;8850;-78
2022/03/16 02:32:59;;;;;;;;;41.50;37.75;;;;;14.30;32.62;99989.44;5009736;28;8842;-80
2022/03/16 02:35:31;;;;;;;;;39.00;36.50;;;;;14.30;32.05;99994.69;4998926;28;8874;-78
2022/03/16 02:38:02;;;;;;;;;39.25;35.75;;;;;14.21;32.58;99991.28;5030440;28;8870;-80
2022/03/16 02:40:32;;;;;;;;;39.25;35.50;;;;;14.18;32.47;99982.56;5014188;28;8873;-81
2022/03/16 02:43:00;;;;;;;;;35.75;34.00;;;;;14.11;32.57;99973.84;5019629;28;8994;-79
2022/03/16 02:45:29;;;;;;;;;42.00;34.75;;;;;14.09;32.68;99967.75;5009046;28;8955;-78
2022/03/16 02:47:58;;;;;;;;;40.50;35.00;;;;;14.15;32.09;99966.84;5005239;28;8968;-80
2022/03/16 02:50:26;;;;;;;;;35.25;32.50;;;;;14.24;31.82;99961.50;5022007;28;8883;-77
2022/03/16 02:52:55;;;;;;;;;32.25;29.75;;;;;14.40;31.62;99952.63;4966024;28;8842;-79
2022/03/16 02:55:46;;;;;;;;;40.50;31.00;;;;;14.46;32.03;99958.69;5025200;28;8961;-77
2022/03/16 02:58:17;;;;;;;;;37.00;34.00;;;;;14.48;31.83;99944.69;5008643;28;9502;-78
2022/03/16 03:00:45;;;;;;;;;38.25;34.25;;;;;14.38;31.59;99951.75;5028454;28;9071;-79
2022/03/16 03:03:14;;;;;;;;;42.25;35.25;;;;;14.39;31.73;99944.75;5001260;28;8876;-77
2022/03/16 03:05:43;;;;;;;;;34.25;31.50;;;;;14.27;32.32;99940.47;4992532;28;8872;-78
2022/03/16 03:08:12;;;;;;;;;38.00;35.75;;;;;14.29;32.08;99946.63;4997899;28;8886;-79
2022/03/16 03:10:40;;;;;;;;;39.75;36.25;;;;;14.34;31.92;99947.41;5012062;28;8961;-79
2022/03/16 03:13:11;;;;;;;;;38.50;36.25;;;;;14.40;31.77;99934.25;5012147;28;8855;-79
2022/03/16 03:15:41;;;;;;;;;42.75;36.50;;;;;14.39;31.40;99945.63;4995878;28;9000;-79
2022/03/16 03:18:10;;;;;;;;;36.50;34.00;;;;;14.42;31.96;99939.47;5012034;28;8873;-77
2022/03/16 03:20:39;;;;;;;;;41.25;35.50;;;;;14.52;31.58;99946.38;4942016;28;8861;-79
2022/03/16 03:23:08;;;;;;;;;37.50;35.25;;;;;14.63;31.23;99951.56;4974694;28;8873;-79
2022/03/16 03:25:36;;;;;;;;;38.75;33.25;;;;;14.72;31.38;99946.19;4992054;28;8865;-79
2022/03/16 03:28:05;;;;;;;;;36.75;33.00;;;;;14.80;31.04;99936.50;4997240;28;8831;-79
2022/03/16 03:30:35;;;;;;;;;35.25;32.50;;;;;14.83;31.32;99927.69;5011500;28;8866;-78
2022/03/16 03:33:04;;;;;;;;;38.00;36.25;;;;;14.67;31.74;99932.25;4994522;28;8921;-79
2022/03/16 03:35:32;;;;;;;;;40.25;35.00;;;;;14.45;31.47;99931.56;4993322;28;8959;-78
2022/03/16 03:38:01;;;;;;;;;35.00;34.25;;;;;14.54;31.77;99928.00;4991312;28;8888;-77
2022/03/16 03:40:30;;;;;;;;;39.75;35.75;;;;;14.62;31.60;99918.31;5023947;28;8848;-76
2022/03/16 03:42:58;;;;;;;;;37.75;35.50;;;;;14.55;31.50;99904.34;5015499;28;8846;-78
2022/03/16 03:45:27;;;;;;;;;36.00;33.50;;;;;14.48;31.90;99893.94;4994458;28;8843;-77
2022/03/16 03:47:57;;;;;;;;;31.00;28.25;;;;;14.57;31.61;99886.88;5012325;28;8870;-77
2022/03/16 03:50:26;;;;;;;;;27.75;25.00;;;;;14.61;31.18;99880.72;5010536;28;8882;-77
2022/03/16 03:52:55;;;;;;;;;35.00;31.50;;;;;14.38;31.35;99880.91;4993492;28;8878;-77
2022/03/16 03:55:23;;;;;;;;;32.25;28.00;;;;;14.43;31.48;99886.13;4993114;28;8846;-77
2022/03/16 03:57:53;;;;;;;;;31.25;31.00;;;;;14.49;31.14;99890.44;5009512;28;8906;-79
2022/03/16 04:00:22;;;;;;;;;30.00;28.25;;;;;14.59;31.21;99885.09;5026568;28;8886;-78
2022/03/16 04:02:51;;;;;;;;;32.50;28.50;;;;;14.65;31.16;99899.03;5031872;28;8911;-80
2022/03/16 04:05:21;;;;;;;;;33.75;31.50;;;;;14.67;31.22;99898.13;5032211;28;8857;-77
2022/03/16 04:07:50;;;;;;;;;30.00;29.75;;;;;14.73;30.90;99892.81;5029103;28;8884;-78
2022/03/16 04:10:19;;;;;;;;;30.00;28.75;;;;;14.76;31.03;99892.78;5014332;28;8854;-79
2022/03/16 04:12:49;;;;;;;;;36.00;32.50;;;;;14.75;30.90;99879.66;4991871;28;8887;-78
2022/03/16 04:15:20;;;;;;;;;34.00;31.50;;;;;14.63;31.48;99880.69;5008666;28;8897;-76
2022/03/16 04:17:49;;;;;;;;;34.50;32.50;;;;;14.54;31.63;99880.75;4976100;28;8883;-81
2022/03/16 04:20:17;;;;;;;;;37.50;33.75;;;;;14.49;31.45;99879.94;4969361;28;8866;-77
2022/03/16 04:22:48;;;;;;;;;36.25;32.50;;;;;14.62;31.30;99878.94;4969637;28;8854;-80
2022/03/16 04:25:17;;;;;;;;;35.25;33.50;;;;;14.51;31.54;99878.16;4931568;28;9017;-77
2022/03/16 04:27:46;;;;;;;;;35.00;33.50;;;;;14.56;31.78;99879.00;4969409;28;8850;-77
2022/03/16 04:30:14;;;;;;;;;39.50;34.50;;;;;14.58;31.33;99885.13;4969634;28;8882;-78
2022/03/16 04:32:43;;;;;;;;;37.50;32.50;;;;;14.51;31.72;99876.41;4937527;28;8885;-79
2022/03/16 04:35:12;;;;;;;;;36.75;33.25;;;;;14.41;31.66;99878.25;4934088;28;8915;-77
2022/03/16 04:37:41;;;;;;;;;40.25;36.00;;;;;14.29;31.61;99872.28;4932286;29;8989;-78
2022/03/16 04:40:12;;;;;;;;;33.75;27.50;;;;;14.02;32.55;99871.66;4920492;29;8872;-78
2022/03/16 04:42:42;;;;;;;;;39.50;33.75;;;;;13.86;32.46;99868.31;4911489;29;8974;-77
2022/03/16 04:45:11;;;;;;;;;34.75;33.25;;;;;13.96;32.56;99856.84;4948892;28;8921;-80
2022/03/16 04:47:40;;;;;;;;;33.75;30.25;;;;;14.05;32.16;99848.03;4949932;28;9001;-77
2022/03/16 04:50:10;;;;;;;;;30.75;29.00;;;;;13.97;32.96;99855.97;4949559;28;8878;-76
2022/03/16 04:52:45;;;;;;;;;30.25;28.25;;;;;14.08;32.85;99853.22;5007325;28;8858;-81
2022/03/16 04:55:16;;;;;;;;;28.00;28.00;;;;;14.00;32.63;99850.69;5009681;28;8877;-79
2022/03/16 04:57:45;;;;;;;;;33.50;33.00;;;;;14.02;32.93;99843.69;4987472;28;8962;-79
2022/03/16 05:00:14;;;;;;;;;35.75;30.25;;;;;14.06;32.32;99846.28;4990856;28;9618;-78
2022/03/16 05:02:43;;;;;;;;;35.75;33.75;;;;;14.24;32.38;99839.09;4973295;28;8880;-77
2022/03/16 05:05:12;;;;;;;;;39.00;33.50;;;;;14.26;32.31;99839.06;4985505;28;8862;-78
2022/03/16 05:07:41;;;;;;;;;27.25;22.00;;;;;14.39;32.31;99848.56;5012223;28;8897;-81
2022/03/16 05:10:11;;;;;;;;;33.00;32.00;;;;;14.51;32.13;99855.41;5024860;28;8901;-77
2022/03/16 05:12:43;;;;;;;;;37.75;33.75;;;;;14.61;31.85;99856.19;5032932;28;8882;-82
2022/03/16 05:15:15;;;;;;;;;35.00;34.00;;;;;14.73;31.79;99855.19;5013897;28;8864;-83
2022/03/16 05:17:44;;;;;;;;;40.50;35.50;;;;;14.79;31.88;99849.84;5012311;28;8864;-85
2022/03/16 05:20:15;;;;;;;;;42.25;35.75;;;;;14.80;31.68;99851.59;5008645;28;8950;-84
2022/03/16 05:22:48;;;;;;;;;39.50;35.75;;;;;14.77;31.69;99854.25;4994541;28;10174;-84
2022/03/16 05:25:19;;;;;;;;;38.50;34.75;;;;;14.78;31.93;99869.09;5012008;28;8856;-83
2022/03/16 05:27:49;;;;;;;;;22.25;22.00;;;;;14.80;31.91;99865.59;5014930;28;9000;-86
2022/03/16 05:30:20;;;;;;;;;38.75;34.75;;;;;14.87;31.38;99862.88;5028022;28;8937;-84
2022/03/16 05:32:51;;;;;;;;;36.50;34.50;;;;;14.82;31.78;99874.31;5029307;28;8833;-84
2022/03/16 05:35:21;;;;;;;;;49.25;39.75;;;;;14.85;32.26;99864.66;5034136;28;9586;-84
2022/03/16 05:37:50;;;;;;;;;37.00;30.50;;;;;14.79;32.00;99869.09;4997750;28;8859;-84
2022/03/16 05:40:19;;;;;;;;;46.75;39.50;;;;;14.62;32.07;99865.81;4998372;28;8862;-84
2022/03/16 05:42:50;;;;;;;;;45.25;38.50;;;;;14.38;32.23;99872.19;4946467;28;8846;-84
2022/03/16 05:45:22;;;;;;;;;46.00;39.00;;;;;14.55;32.42;99867.59;4976277;28;8858;-85
2022/03/16 05:47:52;;;;;;;;;36.00;31.25;;;;;14.48;32.04;99867.69;4988824;28;8915;-83
2022/03/16 05:50:21;;;;;;;;;40.50;37.25;;;;;14.27;32.75;99867.03;4972087;28;8860;-84
2022/03/16 05:52:49;;;;;;;;;44.25;38.00;;;;;14.40;32.59;99870.41;4972905;28;8857;-84
2022/03/16 05:55:18;;;;;;;;;38.00;33.25;;;;;14.56;32.31;99884.25;4972881;28;8915;-84
2022/03/16 05:57:49;;;;;;;;;39.25;34.50;;;;;14.67;32.24;99887.63;4972660;28;8880;-83
2022/03/16 06:00:42;;;;;;;;;37.50;35.25;;;;;14.32;32.59;99901.09;4989077;28;8856;-86
2022/03/16 06:03:12;;;;;;;;;39.00;34.50;;;;;14.61;32.61;99906.06;4969913;28;8872;-85
2022/03/16 06:05:41;;;;;;;;;35.50;29.50;;;;;14.71;31.85;99910.34;4973571;28;8891;-85
2022/03/16 06:08:09;;;;;;;;;40.00;35.75;;;;;14.84;31.96;99911.06;4974295;28;8840;-84
2022/03/16 06:10:39;;;;;;;;;38.00;34.00;;;;;14.55;32.09;99919.22;4971884;28;9701;-84
2022/03/16 06:13:10;;;;;;;;;42.50;35.75;;;;;13.92;33.22;99919.84;4968539;28;8851;-84
2022/03/16 06:15:42;;;;;;;;;48.75;40.00;;;;;14.04;33.96;99923.22;4970673;28;9480;-82
2022/03/16 06:18:12;;;;;;;;;48.75;41.25;;;;;14.23;33.73;99912.53;4974225;28;8999;-83
2022/03/16 06:20:42;;;;;;;;;51.00;41.25;;;;;14.43;32.83;99912.38;4994689;28;9608;-86
2022/03/16 06:23:12;;;;;;;;;43.25;37.50;;;;;14.64;33.02;99898.16;4975844;28;9702;-84
2022/03/16 06:25:42;;;;;;;;;53.25;43.75;;;;;14.74;33.83;99896.28;5010489;28;8854;-86
2022/03/16 06:28:12;;;;;;;;;41.00;37.25;;;;;14.85;33.68;99889.16;4994316;28;8835;-84
2022/03/16 06:30:41;;;;;;;;;42.50;35.50;;;;;14.91;32.89;99889.06;4976078;28;9658;-78
2022/03/16 06:33:10;;;;;;;;;36.00;35.00;;;;;15.00;32.71;99881.06;4942566;28;8939;-78
2022/03/16 06:35:39;;;;;;;;;48.00;39.00;;;;;15.11;32.50;99883.56;4961140;28;8985;-77
2022/03/16 06:38:08;;;;;;;;;37.50;34.00;;;;;15.20;32.30;99880.81;5011019;28;8886;-78
2022/03/16 06:40:37;;;;;;;;;38.50;35.75;;;;;15.29;32.17;99871.94;4917888;28;12991;-81
2022/03/16 06:43:06;;;;;;;;;40.25;36.25;;;;;15.38;32.16;99879.66;4993250;28;8983;-78
2022/03/16 06:45:36;;;;;;;;;48.00;39.50;;;;;15.46;31.69;99873.44;4976139;28;9720;-77
2022/03/16 06:48:05;;;;;;;;;45.50;37.75;;;;;15.51;31.66;99874.25;4992713;28;8841;-78
2022/03/16 06:50:34;;;;;;;;;53.75;45.50;;;;;15.52;32.21;99875.97;4973966;28;8849;-66
2022/03/16 06:53:02;;;;;;;;;56.75;48.25;;;;;15.47;32.40;99876.03;4988907;28;8848;-66
2022/03/16 06:55:31;;;;;;;;;59.75;48.25;;;;;15.54;32.04;99879.47;4990903;28;8861;-65
2022/03/16 06:58:00;;;;;;;;;52.00;39.33;;;;;15.60;32.30;99884.63;4973044;28;8845;-65
2022/03/16 07:00:28;;;;;;;;;59.50;47.00;;;;;15.67;32.27;99888.91;4973280;28;8941;-65
2022/03/16 07:03:01;;;;;;;;;63.00;50.33;;;;;15.72;32.25;99881.78;4957411;28;8857;-64
2022/03/16 07:05:31;;;;;;;;;58.75;48.50;;;;;15.74;32.34;99885.28;4994251;28;9124;-78
2022/03/16 07:08:03;;;;;;;;;54.25;46.50;;;;;15.78;31.96;99881.72;4976103;28;8860;-79
2022/03/16 07:10:33;;;;;;;;;46.50;39.25;;;;;15.79;31.76;99883.44;4991326;28;8860;-79
2022/03/16 07:13:03;;;;;;;;;43.00;35.25;;;;;15.84;32.01;99885.13;4993346;28;8973;-80
2022/03/16 07:15:32;;;;;;;;;63.00;49.67;;;;;15.87;31.91;99888.59;4976254;28;8861;-80
2022/03/16 07:18:03;;;;;;;;;64.67;50.33;;;;;15.90;32.16;99895.56;4971473;28;9059;-79
2022/03/16 07:20:33;;;;;;;;;59.50;46.50;;;;;15.92;31.75;99885.91;4975598;28;9108;-79
2022/03/16 07:23:07;;;;;;;;;55.75;46.25;;;;;15.97;31.70;99891.91;4991983;28;8947;-79
2022/03/16 07:25:38;;;;;;;;;60.00;48.75;;;;;15.99;31.38;99892.75;4959880;28;8880;-80
2022/03/16 07:28:08;;;;;;;;;54.00;45.75;;;;;16.02;31.15;99897.97;4971498;28;9000;-79
2022/03/16 07:30:38;;;;;;;;;58.25;47.00;;;;;16.05;31.41;99904.94;4939097;28;8867;-79
2022/03/16 07:33:09;;;;;;;;;54.00;45.00;;;;;16.08;31.30;99905.75;4954446;28;9582;-78
2022/03/16 07:35:39;;;;;;;;;55.00;44.25;;;;;16.12;31.56;99901.31;4939301;28;8874;-78
2022/03/16 07:38:08;;;;;;;;;55.00;44.75;;;;;16.16;31.21;99893.34;4938466;28;8998;-78
2022/03/16 07:40:38;;;;;;;;;50.75;42.50;;;;;16.19;30.76;99892.41;4955724;28;8870;-78
2022/03/16 07:43:07;;;;;;;;;55.75;43.50;;;;;16.23;30.95;99893.25;4959372;28;8875;-77
2022/03/16 07:45:37;;;;;;;;;52.25;42.75;;;;;16.24;30.65;99894.97;4989950;28;8959;-78
2022/03/16 07:48:06;;;;;;;;;51.25;42.25;;;;;15.98;30.99;99901.56;4956839;28;9010;-78
2022/03/16 07:50:37;;;;;;;;;55.00;45.00;;;;;15.60;31.74;99901.25;4968314;28;8863;-77
2022/03/16 07:53:06;;;;;;;;;61.00;48.25;;;;;15.68;32.02;99905.53;4940268;28;8867;-77
2022/03/16 07:55:35;;;;;;;;;53.00;44.25;;;;;15.45;32.18;99903.25;4972234;28;8863;-78
2022/03/16 07:58:04;;;;;;;;;51.25;41.50;;;;;15.51;31.75;99904.00;4955098;28;8890;-78
2022/03/16 08:00:33;;;;;;;;;48.50;42.00;;;;;15.15;32.49;99902.78;4991601;28;8872;-78
2022/03/16 08:03:03;;;;;;;;;50.00;39.50;;;;;15.39;32.28;99904.22;4975431;28;8923;-80
2022/03/16 08:05:32;;;;;;;;;37.75;35.25;;;;;15.45;31.74;99919.03;4991393;28;8876;-79
2022/03/16 08:08:02;;;;;;;;;42.25;37.25;;;;;15.55;31.96;99913.59;4922178;28;8969;-77
2022/03/16 08:10:31;;;;;;;;;44.25;36.00;;;;;15.34;32.05;99927.91;4970452;28;8890;-78
2022/03/16 08:13:00;;;;;;;;;48.25;40.00;;;;;14.89;33.40;99934.63;4954654;28;8890;-78
2022/03/16 08:15:29;;;;;;;;;40.50;36.00;;;;;14.44;33.83;99932.44;4971346;28;9684;-78
2022/03/16 08:17:58;;;;;;;;;44.50;38.50;;;;;13.87;34.85;99943.44;4956165;28;8889;-79
2022/03/16 08:20:29;;;;;;;;;57.50;45.75;;;;;13.83;36.73;99941.72;4938932;28;8859;-78
2022/03/16 08:22:57;;;;;;;;;63.67;52.00;;;;;14.27;36.86;99948.34;4972222;28;8879;-79
2022/03/16 08:25:49;;;;;;;;;61.00;49.25;;;;;14.11;36.42;99959.88;4973153;28;9064;-78
2022/03/16 08:28:18;;;;;;;;;56.00;47.25;;;;;14.51;35.75;99949.00;4945507;28;8890;-77
2022/03/16 08:30:46;;;;;;;;;52.75;42.75;;;;;14.58;35.56;99954.22;4980081;28;8859;-79
2022/03/16 08:33:17;;;;;;;;;50.25;42.75;;;;;14.78;35.09;99948.75;4986229;28;8864;-79
2022/03/16 08:35:46;;;;;;;;;42.00;36.75;;;;;14.71;34.50;99946.22;4979129;28;8836;-78
2022/03/16 08:38:15;;;;;;;;;42.00;34.00;;;;;14.76;34.97;99945.28;4934619;28;8997;-79
2022/03/16 08:40:44;;;;;;;;;44.75;37.00;;;;;14.78;34.78;99940.88;4930798;28;8883;-79
2022/03/16 08:43:13;;;;;;;;;40.25;35.25;;;;;14.93;34.32;99946.84;4938037;28;8894;-78
2022/03/16 08:45:42;;;;;;;;;37.75;35.25;;;;;15.18;33.77;99950.03;4953745;28;9946;-79
2022/03/16 08:48:11;;;;;;;;;36.75;34.75;;;;;15.32;33.04;99940.19;4921924;28;8921;-79
2022/03/16 08:50:40;;;;;;;;;41.50;38.00;;;;;15.10;33.29;99939.59;4953993;28;8890;-79
2022/03/16 08:53:09;;;;;;;;;53.25;40.75;;;;;14.81;33.76;99938.22;4954899;28;8958;-79
2022/03/16 08:55:38;;;;;;;;;41.50;37.00;;;;;14.90;33.59;99952.13;4954448;28;8875;-79
2022/03/16 08:58:07;;;;;;;;;44.25;37.75;;;;;15.12;33.52;99960.59;4937243;28;8898;-78
2022/03/16 09:00:37;;;;;;;;;45.75;39.00;;;;;15.18;33.16;99964.03;4937604;28;8847;-79
2022/03/16 09:03:06;;;;;;;;;55.75;44.75;;;;;15.11;34.00;99959.75;4923091;28;8911;-78
2022/03/16 09:05:35;;;;;;;;;48.75;40.50;;;;;15.26;33.24;99935.03;4937884;28;8869;-77
2022/03/16 09:08:04;;;;;;;;;42.25;38.50;;;;;14.50;34.41;99940.28;4905663;28;8863;-80
2022/03/16 09:10:34;;;;;;;;;37.25;34.25;;;;;14.41;34.82;99946.47;4988165;28;8865;-78
2022/03/16 09:13:04;;;;;;;;;48.00;39.50;;;;;14.70;34.28;99958.47;4989551;28;8910;-79
2022/03/16 09:15:40;;;;;;;;;47.75;40.00;;;;;14.81;34.86;99971.47;4989508;28;9634;-79
2022/03/16 09:18:09;;;;;;;;;51.75;43.00;;;;;14.99;34.52;99973.91;4940757;28;8869;-80
2022/03/16 09:20:38;;;;;;;;;55.75;44.25;;;;;15.18;34.98;99986.81;4972446;28;8864;-80
2022/03/16 09:23:10;;;;;;;;;50.00;39.50;;;;;14.54;37.06;99975.25;4972919;28;9027;-78
2022/03/16 09:25:41;;;;;;;;;35.25;32.25;;;;;14.09;39.48;99961.66;4988988;28;8857;-79
2022/03/16 09:28:10;;;;;;;;;26.75;25.25;;;;;12.62;43.37;99964.97;4972817;28;9705;-79
2022/03/16 09:30:40;;;;;;;;;28.25;27.25;;;;;12.20;46.12;99979.84;4972604;28;8845;-80
2022/03/16 09:33:09;;;;;;;;;33.75;30.75;;;;;11.96;44.39;99985.94;4956505;28;8873;-79
2022/03/16 09:35:38;;;;;;;;;30.25;30.25;;;;;11.66;46.18;99990.22;4956765;28;8841;-78
2022/03/16 09:38:07;;;;;;;;;37.00;33.00;;;;;11.41;49.72;99999.72;4955298;28;8857;-77
2022/03/16 09:40:36;;;;;;;;;31.00;28.50;;;;;10.83;53.04;100016.00;4955787;28;8864;-80
2022/03/16 09:43:08;;;;;;;;;33.00;30.75;;;;;10.49;56.02;99983.59;4955826;28;8869;-79
2022/03/16 09:45:46;;;;;;;;;35.50;35.00;;;;;10.44;56.96;99983.56;4955862;28;8893;-78
2022/03/16 09:48:15;;;;;;;;;34.00;34.00;;;;;10.41;56.93;99990.50;4956191;28;8853;-79
2022/03/16 09:50:44;;;;;;;;;38.00;35.25;;;;;10.29;58.59;99986.03;4955720;28;8853;-80
2022/03/16 09:53:15;;;;;;;;;44.25;36.75;;;;;10.22;57.14;100007.69;4971817;28;8876;-79
2022/03/16 09:55:44;;;;;;;;;40.75;38.25;;;;;10.20;57.48;100006.81;4952323;28;8863;-79
2022/03/16 09:58:13;;;;;;;;;43.00;39.25;;;;;10.17;56.95;100006.78;4952267;28;9720;-79
2022/03/16 10:00:43;;;;;;;;;48.25;42.50;;;;;10.13;58.29;100003.25;4936475;28;9783;-79
2022/03/16 10:03:15;;;;;;;;;47.25;42.25;;;;;10.10;59.74;100008.47;4936166;28;8914;-79
2022/03/16 10:05:47;;;;;;;;;48.50;42.50;;;;;10.01;58.89;100004.03;4952249;28;8997;-79
2022/03/16 10:08:26;;;;;;;;;52.00;41.50;;;;;10.04;61.08;99990.19;4937830;28;8878;-79
2022/03/16 10:13:53;;;;;;;;;55.25;44.50;;;;;10.65;59.25;99981.97;4956496;28;8864;-79
2022/03/16 10:16:24;;;;;;;;;56.75;44.25;;;;;10.92;59.81;99978.63;4956343;28;8945;-80
2022/03/16 10:18:55;;;;;;;;;52.00;43.75;;;;;11.13;58.03;99964.81;4958451;28;8856;-78
2022/03/16 10:21:30;;;;;;;;;58.75;46.50;;;;;11.31;58.45;99972.72;4976617;28;8860;-76
2022/03/16 10:24:03;;;;;;;;;56.00;45.00;;;;;11.49;56.07;99974.50;4974614;28;8989;-80
2022/03/16 10:26:32;;;;;;;;;56.00;47.25;;;;;11.30;56.81;99965.75;4981222;28;8892;-78
2022/03/16 10:29:04;;;;;;;;;56.75;45.50;;;;;11.29;57.46;99969.22;4929673;28;9871;-80
2022/03/16 10:31:35;;;;;;;;;57.50;48.25;;;;;11.60;57.51;99955.38;4992681;28;8955;-77
2022/03/16 10:34:06;;;;;;;;;56.25;44.50;;;;;11.71;55.42;99957.13;4992661;28;8865;-79
2022/03/16 10:36:41;;;;;;;;;58.75;47.25;;;;;11.92;55.84;99962.41;4992381;28;8964;-80
2022/03/16 10:39:10;;;;;;;;;55.75;46.25;;;;;12.19;55.31;99951.09;4992144;28;8856;-79
2022/03/16 10:47:15;;;;;;;;;59.50;48.25;;;;;12.87;55.03;99949.19;4976478;28;8942;-79
2022/03/16 10:49:46;;;;;;;;;56.75;46.00;;;;;13.06;52.87;99943.03;4992544;28;8845;-79
2022/03/16 10:52:18;;;;;;;;;59.75;47.00;;;;;13.28;53.55;99942.91;4994852;28;8869;-80
2022/03/16 10:54:49;;;;;;;;;54.75;45.25;;;;;13.46;52.66;99936.75;4976793;28;8949;-82
2022/03/16 10:57:18;;;;;;;;;52.25;42.75;;;;;13.51;50.74;99927.09;4976798;28;9609;-79
2022/03/16 10:59:48;;;;;;;;;52.25;43.75;;;;;13.59;50.80;99932.28;4960567;28;8861;-78
2022/03/16 11:02:20;;;;;;;;;54.25;44.00;;;;;13.72;50.94;99935.69;4943796;28;8868;-79
2022/03/16 11:04:51;;;;;;;;;56.50;46.75;;;;;13.49;50.89;99928.84;4993578;28;8927;-79
2022/03/16 11:07:21;;;;;;;;;53.75;45.75;;;;;13.39;49.88;99929.81;4960009;28;8904;-78
2022/03/16 11:09:50;;;;;;;;;58.25;46.25;;;;;13.41;50.34;99931.53;4993007;28;8923;-79
2022/03/16 11:15:11;;;;;;;;;52.25;44.75;;;;;13.73;49.24;99924.34;4975693;28;8865;-79
2022/03/16 11:17:42;;;;;;;;;58.25;46.75;;;;;13.83;48.14;99923.38;4975996;28;8962;-79
2022/03/16 11:20:12;;;;;;;;;54.00;44.25;;;;;13.80;48.72;99923.44;4992251;28;8864;-78
2022/03/16 11:24:15;;;;;;;;;57.75;45.75;;;;;13.84;48.68;99915.50;4926818;28;8888;-79
2022/03/16 11:25:50;;;;;;;;;56.25;44.75;;;;;13.81;48.53;99919.91;4991755;28;8913;-79
2022/03/16 11:28:31;;;;;;;;;55.25;46.25;;;;;14.01;49.00;99907.50;4991154;28;8876;-80
2022/03/16 11:31:00;;;;;;;;;55.00;45.75;;;;;14.10;47.80;99914.44;4991690;28;8864;-81
2022/03/16 11:33:31;;;;;;;;;57.50;47.00;;;;;14.08;48.35;99907.44;4992375;28;8975;-79
2022/03/16 11:35:59;;;;;;;;;52.50;44.75;;;;;13.79;48.91;99905.94;4974933;28;8837;-78
2022/03/16 11:38:34;;;;;;;;;48.00;40.25;;;;;13.91;49.14;99915.47;4989840;28;8990;-80
2022/03/16 11:41:08;;;;;;;;;54.50;46.25;;;;;13.95;49.14;99912.81;4990639;28;9614;-79
2022/03/16 11:43:37;;;;;;;;;50.75;41.25;;;;;14.11;49.07;99912.69;4989695;28;8872;-79
2022/03/16 11:46:28;;;;;;;;;52.75;41.25;;;;;14.00;49.51;99918.00;4974027;28;8872;-79
2022/03/16 11:49:02;;;;;;;;;52.25;44.25;;;;;13.53;51.19;99912.22;4991113;28;9039;-79